sensor_id;sensor_type;location;lat;lon;timestamp;temperature;humidity
37274;DHT22;23161;51.250;5.554;2024-01-27T00:00:07;2.30;99.90
37274;DHT22;23161;51.250;5.554;2024-01-27T00:03:11;2.20;99.90
37274;DHT22;23161;51.250;5.554;2024-01-27T00:04:41;2.20;99.90
37274;DHT22;23161;51.250;5.554;2024-01-27T00:06:12;2.20;99.90
37274;DHT22;23161;51.250;5.554;2024-01-27T00:07:43;2.30;99.90
37274;DHT22;23161;51.250;5.554;2024-01-27T00:09:14;2.30;99.90
37274;DHT22;23161;51.250;5.554;2024-01-27T00:10:44;2.20;99.90
37274;DHT22;23161;51.250;5.554;2024-01-27T00:12:16;2.20;99.90
37274;DHT22;23161;51.250;5.554;2024-01-27T00:13:47;2.20;99.90
37274;DHT22;23161;51.250;5.554;2024-01-27T00:15:18;2.10;99.90
37274;DHT22;23161;51.250;5.554;2024-01-27T00:16:48;2.20;99.90
37274;DHT22;23161;51.250;5.554;2024-01-27T00:18:19;2.20;99.90
37274;DHT22;23161;51.250;5.554;2024-01-27T00:19:53;2.20;99.90
37274;DHT22;23161;51.250;5.554;2024-01-27T00:21:25;2.20;99.90
37274;DHT22;23161;51.250;5.554;2024-01-27T00:24:26;2.30;99.90
37274;DHT22;23161;51.250;5.554;2024-01-27T00:25:58;2.30;99.90
37274;DHT22;23161;51.250;5.554;2024-01-27T00:27:29;2.20;99.90
37274;DHT22;23161;51.250;5.554;2024-01-27T00:28:59;2.30;99.90
37274;DHT22;23161;51.250;5.554;2024-01-27T00:30:30;2.20;99.90
37274;DHT22;23161;51.250;5.554;2024-01-27T00:32:01;2.30;99.90
37274;DHT22;23161;51.250;5.554;2024-01-27T00:33:32;2.20;99.90
37274;DHT22;23161;51.250;5.554;2024-01-27T00:35:03;2.40;99.90
37274;DHT22;23161;51.250;5.554;2024-01-27T00:36:34;2.30;99.90
37274;DHT22;23161;51.250;5.554;2024-01-27T00:39:39;2.20;99.90
37274;DHT22;23161;51.250;5.554;2024-01-27T00:41:16;2.20;99.90
37274;DHT22;23161;51.250;5.554;2024-01-27T00:42:46;2.20;99.90
37274;DHT22;23161;51.250;5.554;2024-01-27T00:44:17;2.20;99.90
37274;DHT22;23161;51.250;5.554;2024-01-27T00:45:48;2.20;99.90
37274;DHT22;23161;51.250;5.554;2024-01-27T00:47:19;2.20;99.90
37274;DHT22;23161;51.250;5.554;2024-01-27T00:48:50;2.40;99.90
37274;DHT22;23161;51.250;5.554;2024-01-27T00:50:20;2.10;99.90
37274;DHT22;23161;51.250;5.554;2024-01-27T00:51:51;2.10;99.90
37274;DHT22;23161;51.250;5.554;2024-01-27T00:53:22;2.10;99.90
37274;DHT22;23161;51.250;5.554;2024-01-27T00:54:53;2.10;99.90
37274;DHT22;23161;51.250;5.554;2024-01-27T00:56:24;2.10;99.90
37274;DHT22;23161;51.250;5.554;2024-01-27T00:57:54;2.60;99.90
37274;DHT22;23161;51.250;5.554;2024-01-27T00:59:25;2.10;99.90
37274;DHT22;23161;51.250;5.554;2024-01-27T01:00:57;2.00;99.90
37274;DHT22;23161;51.250;5.554;2024-01-27T01:02:28;2.50;99.90
37274;DHT22;23161;51.250;5.554;2024-01-27T01:03:59;2.80;99.90
37274;DHT22;23161;51.250;5.554;2024-01-27T01:05:30;2.00;99.90
37274;DHT22;23161;51.250;5.554;2024-01-27T01:07:01;1.90;99.90
37274;DHT22;23161;51.250;5.554;2024-01-27T01:08:32;2.00;99.90
37274;DHT22;23161;51.250;5.554;2024-01-27T01:10:03;1.90;99.90
37274;DHT22;23161;51.250;5.554;2024-01-27T01:11:34;1.90;99.90
37274;DHT22;23161;51.250;5.554;2024-01-27T01:13:05;1.80;99.90
37274;DHT22;23161;51.250;5.554;2024-01-27T01:14:36;1.80;99.90
37274;DHT22;23161;51.250;5.554;2024-01-27T01:16:07;1.80;99.90
37274;DHT22;23161;51.250;5.554;2024-01-27T01:17:38;1.80;99.90
37274;DHT22;23161;51.250;5.554;2024-01-27T01:19:09;1.70;99.90
37274;DHT22;23161;51.250;5.554;2024-01-27T01:20:40;1.60;99.90
37274;DHT22;23161;51.250;5.554;2024-01-27T01:22:11;1.60;99.90
37274;DHT22;23161;51.250;5.554;2024-01-27T01:23:42;2.30;99.90
37274;DHT22;23161;51.250;5.554;2024-01-27T01:25:13;1.60;99.90
37274;DHT22;23161;51.250;5.554;2024-01-27T01:26:44;1.50;99.90
37274;DHT22;23161;51.250;5.554;2024-01-27T01:28:14;1.50;99.90
37274;DHT22;23161;51.250;5.554;2024-01-27T01:29:45;1.50;99.90
37274;DHT22;23161;51.250;5.554;2024-01-27T01:31:16;1.50;99.90
37274;DHT22;23161;51.250;5.554;2024-01-27T01:32:47;1.70;99.90
37274;DHT22;23161;51.250;5.554;2024-01-27T01:34:18;2.10;99.90
37274;DHT22;23161;51.250;5.554;2024-01-27T01:35:49;1.50;99.90
37274;DHT22;23161;51.250;5.554;2024-01-27T01:37:20;1.90;99.90
37274;DHT22;23161;51.250;5.554;2024-01-27T01:38:50;2.30;99.90
37274;DHT22;23161;51.250;5.554;2024-01-27T01:40:21;1.40;99.90
37274;DHT22;23161;51.250;5.554;2024-01-27T01:41:53;1.30;99.90
37274;DHT22;23161;51.250;5.554;2024-01-27T01:43:23;1.30;99.90
37274;DHT22;23161;51.250;5.554;2024-01-27T01:44:54;1.30;99.90
37274;DHT22;23161;51.250;5.554;2024-01-27T01:46:25;1.30;99.90
37274;DHT22;23161;51.250;5.554;2024-01-27T01:47:56;1.30;99.90
37274;DHT22;23161;51.250;5.554;2024-01-27T01:49:27;1.30;99.90
37274;DHT22;23161;51.250;5.554;2024-01-27T01:51:00;1.30;99.90
37274;DHT22;23161;51.250;5.554;2024-01-27T01:52:31;1.30;99.90
37274;DHT22;23161;51.250;5.554;2024-01-27T01:54:02;1.30;99.90
37274;DHT22;23161;51.250;5.554;2024-01-27T01:55:33;1.30;99.90
37274;DHT22;23161;51.250;5.554;2024-01-27T01:57:05;1.30;99.90
37274;DHT22;23161;51.250;5.554;2024-01-27T01:58:36;1.40;99.90
37274;DHT22;23161;51.250;5.554;2024-01-27T02:00:07;1.40;99.90
37274;DHT22;23161;51.250;5.554;2024-01-27T02:01:42;1.40;99.90
37274;DHT22;23161;51.250;5.554;2024-01-27T02:03:14;1.40;99.90
37274;DHT22;23161;51.250;5.554;2024-01-27T02:04:45;1.50;99.90
37274;DHT22;23161;51.250;5.554;2024-01-27T02:06:16;1.40;99.90
37274;DHT22;23161;51.250;5.554;2024-01-27T02:07:47;1.30;99.90
37274;DHT22;23161;51.250;5.554;2024-01-27T02:09:18;1.30;99.90
37274;DHT22;23161;51.250;5.554;2024-01-27T02:10:49;1.30;99.90
37274;DHT22;23161;51.250;5.554;2024-01-27T02:12:19;1.30;99.90
37274;DHT22;23161;51.250;5.554;2024-01-27T02:13:50;1.30;99.90
37274;DHT22;23161;51.250;5.554;2024-01-27T02:15:21;1.30;99.90
37274;DHT22;23161;51.250;5.554;2024-01-27T02:16:52;1.30;99.90
37274;DHT22;23161;51.250;5.554;2024-01-27T02:18:23;1.30;99.90
37274;DHT22;23161;51.250;5.554;2024-01-27T02:19:54;1.30;99.90
37274;DHT22;23161;51.250;5.554;2024-01-27T02:21:25;1.70;99.90
37274;DHT22;23161;51.250;5.554;2024-01-27T02:22:56;1.50;99.90
37274;DHT22;23161;51.250;5.554;2024-01-27T02:24:27;1.20;99.90
37274;DHT22;23161;51.250;5.554;2024-01-27T02:25:59;1.20;99.90
37274;DHT22;23161;51.250;5.554;2024-01-27T02:27:29;1.20;99.90
37274;DHT22;23161;51.250;5.554;2024-01-27T02:29:00;1.90;99.90
37274;DHT22;23161;51.250;5.554;2024-01-27T02:30:31;1.20;99.90
37274;DHT22;23161;51.250;5.554;2024-01-27T02:32:02;1.40;99.90
37274;DHT22;23161;51.250;5.554;2024-01-27T02:33:33;1.20;99.90
37274;DHT22;23161;51.250;5.554;2024-01-27T02:35:04;1.20;99.90
37274;DHT22;23161;51.250;5.554;2024-01-27T02:36:35;1.20;99.90
37274;DHT22;23161;51.250;5.554;2024-01-27T02:38:06;1.20;99.90
37274;DHT22;23161;51.250;5.554;2024-01-27T02:39:37;1.20;99.90
37274;DHT22;23161;51.250;5.554;2024-01-27T02:41:09;1.90;99.90
37274;DHT22;23161;51.250;5.554;2024-01-27T02:42:41;1.20;99.90
37274;DHT22;23161;51.250;5.554;2024-01-27T02:44:12;1.20;99.90
37274;DHT22;23161;51.250;5.554;2024-01-27T02:45:43;1.90;99.90
37274;DHT22;23161;51.250;5.554;2024-01-27T02:47:14;1.40;99.90
37274;DHT22;23161;51.250;5.554;2024-01-27T02:48:45;1.10;99.90
37274;DHT22;23161;51.250;5.554;2024-01-27T02:50:16;1.10;99.90
37274;DHT22;23161;51.250;5.554;2024-01-27T02:51:47;1.10;99.90
37274;DHT22;23161;51.250;5.554;2024-01-27T02:54:50;1.00;99.90
37274;DHT22;23161;51.250;5.554;2024-01-27T02:56:21;1.00;99.90
37274;DHT22;23161;51.250;5.554;2024-01-27T02:57:52;1.60;99.90
37274;DHT22;23161;51.250;5.554;2024-01-27T02:59:22;1.10;99.90
37274;DHT22;23161;51.250;5.554;2024-01-27T03:00:54;1.90;99.90
37274;DHT22;23161;51.250;5.554;2024-01-27T03:02:24;1.20;99.90
37274;DHT22;23161;51.250;5.554;2024-01-27T03:03:55;1.10;99.90
37274;DHT22;23161;51.250;5.554;2024-01-27T03:05:26;1.10;99.90
37274;DHT22;23161;51.250;5.554;2024-01-27T03:06:57;1.10;99.90
37274;DHT22;23161;51.250;5.554;2024-01-27T03:08:28;1.90;99.90
37274;DHT22;23161;51.250;5.554;2024-01-27T03:09:58;1.00;99.90
37274;DHT22;23161;51.250;5.554;2024-01-27T03:11:29;1.00;99.90
37274;DHT22;23161;51.250;5.554;2024-01-27T03:13:00;1.00;99.90
37274;DHT22;23161;51.250;5.554;2024-01-27T03:14:31;0.90;99.90
37274;DHT22;23161;51.250;5.554;2024-01-27T03:16:01;1.00;99.90
37274;DHT22;23161;51.250;5.554;2024-01-27T03:17:32;0.90;99.90
37274;DHT22;23161;51.250;5.554;2024-01-27T03:19:03;0.90;99.90
37274;DHT22;23161;51.250;5.554;2024-01-27T03:20:34;0.80;99.90
37274;DHT22;23161;51.250;5.554;2024-01-27T03:22:04;0.90;99.90
37274;DHT22;23161;51.250;5.554;2024-01-27T03:23:36;0.80;99.90
37274;DHT22;23161;51.250;5.554;2024-01-27T03:25:09;0.90;99.90
37274;DHT22;23161;51.250;5.554;2024-01-27T03:26:40;0.90;99.90
37274;DHT22;23161;51.250;5.554;2024-01-27T03:28:11;0.80;99.90
37274;DHT22;23161;51.250;5.554;2024-01-27T03:29:41;0.80;99.90
37274;DHT22;23161;51.250;5.554;2024-01-27T03:31:12;0.70;99.90
37274;DHT22;23161;51.250;5.554;2024-01-27T03:32:43;0.70;99.90
37274;DHT22;23161;51.250;5.554;2024-01-27T03:34:14;0.80;99.90
37274;DHT22;23161;51.250;5.554;2024-01-27T03:35:45;0.70;99.90
37274;DHT22;23161;51.250;5.554;2024-01-27T03:37:16;0.80;99.90
37274;DHT22;23161;51.250;5.554;2024-01-27T03:38:46;0.70;99.90
37274;DHT22;23161;51.250;5.554;2024-01-27T03:40:17;0.80;99.90
37274;DHT22;23161;51.250;5.554;2024-01-27T03:41:49;0.80;99.90
37274;DHT22;23161;51.250;5.554;2024-01-27T03:43:20;0.80;99.90
37274;DHT22;23161;51.250;5.554;2024-01-27T03:44:50;0.70;99.90
37274;DHT22;23161;51.250;5.554;2024-01-27T03:46:21;1.90;99.90
37274;DHT22;23161;51.250;5.554;2024-01-27T03:47:52;1.40;99.90
37274;DHT22;23161;51.250;5.554;2024-01-27T03:49:23;0.80;99.90
37274;DHT22;23161;51.250;5.554;2024-01-27T03:50:53;1.40;99.90
37274;DHT22;23161;51.250;5.554;2024-01-27T03:53:55;0.90;99.90
37274;DHT22;23161;51.250;5.554;2024-01-27T03:55:26;1.50;99.90
37274;DHT22;23161;51.250;5.554;2024-01-27T03:56:57;1.60;99.90
37274;DHT22;23161;51.250;5.554;2024-01-27T03:58:28;0.80;99.90
37274;DHT22;23161;51.250;5.554;2024-01-27T03:59:59;0.80;99.90
37274;DHT22;23161;51.250;5.554;2024-01-27T04:01:30;0.80;99.90
37274;DHT22;23161;51.250;5.554;2024-01-27T04:03:01;1.50;99.90
37274;DHT22;23161;51.250;5.554;2024-01-27T04:04:32;0.80;99.90
37274;DHT22;23161;51.250;5.554;2024-01-27T04:06:03;0.80;99.90
37274;DHT22;23161;51.250;5.554;2024-01-27T04:07:34;0.80;99.90
37274;DHT22;23161;51.250;5.554;2024-01-27T04:09:05;0.80;99.90
37274;DHT22;23161;51.250;5.554;2024-01-27T04:10:39;1.20;99.90
37274;DHT22;23161;51.250;5.554;2024-01-27T04:12:10;1.20;99.90
37274;DHT22;23161;51.250;5.554;2024-01-27T04:13:40;0.80;99.90
37274;DHT22;23161;51.250;5.554;2024-01-27T04:15:11;0.80;99.90
37274;DHT22;23161;51.250;5.554;2024-01-27T04:16:42;1.40;99.90
37274;DHT22;23161;51.250;5.554;2024-01-27T04:18:13;1.30;99.90
37274;DHT22;23161;51.250;5.554;2024-01-27T04:19:44;0.60;99.90
37274;DHT22;23161;51.250;5.554;2024-01-27T04:21:15;0.60;99.90
37274;DHT22;23161;51.250;5.554;2024-01-27T04:22:46;0.60;99.90
37274;DHT22;23161;51.250;5.554;2024-01-27T04:24:16;0.60;99.90
37274;DHT22;23161;51.250;5.554;2024-01-27T04:25:47;0.50;99.90
37274;DHT22;23161;51.250;5.554;2024-01-27T04:27:18;1.30;99.90
37274;DHT22;23161;51.250;5.554;2024-01-27T04:28:49;1.20;99.90
37274;DHT22;23161;51.250;5.554;2024-01-27T04:30:19;0.50;99.90
37274;DHT22;23161;51.250;5.554;2024-01-27T04:31:50;0.70;99.90
37274;DHT22;23161;51.250;5.554;2024-01-27T04:33:21;0.50;99.90
37274;DHT22;23161;51.250;5.554;2024-01-27T04:34:52;0.50;99.90
37274;DHT22;23161;51.250;5.554;2024-01-27T04:36:29;0.60;99.90
37274;DHT22;23161;51.250;5.554;2024-01-27T04:38:00;0.50;99.90
37274;DHT22;23161;51.250;5.554;2024-01-27T04:39:31;0.60;99.90
37274;DHT22;23161;51.250;5.554;2024-01-27T04:41:02;0.70;99.90
37274;DHT22;23161;51.250;5.554;2024-01-27T04:42:34;0.50;99.90
37274;DHT22;23161;51.250;5.554;2024-01-27T04:44:05;0.50;99.90
37274;DHT22;23161;51.250;5.554;2024-01-27T04:45:35;1.50;99.90
37274;DHT22;23161;51.250;5.554;2024-01-27T04:47:06;0.40;99.90
37274;DHT22;23161;51.250;5.554;2024-01-27T04:50:09;0.50;99.90
37274;DHT22;23161;51.250;5.554;2024-01-27T04:51:40;0.40;99.90
37274;DHT22;23161;51.250;5.554;2024-01-27T04:53:11;0.30;99.90
37274;DHT22;23161;51.250;5.554;2024-01-27T04:54:41;0.30;99.90
37274;DHT22;23161;51.250;5.554;2024-01-27T04:56:12;0.30;99.90
37274;DHT22;23161;51.250;5.554;2024-01-27T04:57:43;0.30;99.90
37274;DHT22;23161;51.250;5.554;2024-01-27T04:59:14;0.30;99.90
37274;DHT22;23161;51.250;5.554;2024-01-27T05:00:45;0.30;99.90
37274;DHT22;23161;51.250;5.554;2024-01-27T05:02:17;0.30;99.90
37274;DHT22;23161;51.250;5.554;2024-01-27T05:03:48;0.20;99.90
37274;DHT22;23161;51.250;5.554;2024-01-27T05:05:18;0.10;99.90
37274;DHT22;23161;51.250;5.554;2024-01-27T05:06:49;0.10;99.90
37274;DHT22;23161;51.250;5.554;2024-01-27T05:08:20;0.10;99.90
37274;DHT22;23161;51.250;5.554;2024-01-27T05:09:51;0.10;99.90
37274;DHT22;23161;51.250;5.554;2024-01-27T05:11:30;0.00;99.90
37274;DHT22;23161;51.250;5.554;2024-01-27T05:13:04;0.00;99.90
37274;DHT22;23161;51.250;5.554;2024-01-27T05:14:35;0.50;99.90
37274;DHT22;23161;51.250;5.554;2024-01-27T05:16:05;0.90;99.90
37274;DHT22;23161;51.250;5.554;2024-01-27T05:17:36;-0.20;99.90
37274;DHT22;23161;51.250;5.554;2024-01-27T05:19:07;-0.20;99.90
37274;DHT22;23161;51.250;5.554;2024-01-27T05:20:38;-0.40;99.90
37274;DHT22;23161;51.250;5.554;2024-01-27T05:22:09;-0.20;99.90
37274;DHT22;23161;51.250;5.554;2024-01-27T05:23:40;0.20;99.90
37274;DHT22;23161;51.250;5.554;2024-01-27T05:25:12;0.00;99.90
37274;DHT22;23161;51.250;5.554;2024-01-27T05:26:42;-0.40;99.90
37274;DHT22;23161;51.250;5.554;2024-01-27T05:28:13;0.20;99.90
37274;DHT22;23161;51.250;5.554;2024-01-27T05:31:15;-0.50;99.90
37274;DHT22;23161;51.250;5.554;2024-01-27T05:32:46;-0.60;99.90
37274;DHT22;23161;51.250;5.554;2024-01-27T05:34:17;-0.60;99.90
37274;DHT22;23161;51.250;5.554;2024-01-27T05:35:47;-0.60;99.90
37274;DHT22;23161;51.250;5.554;2024-01-27T05:37:18;-0.60;99.90
37274;DHT22;23161;51.250;5.554;2024-01-27T05:38:49;-0.60;99.90
37274;DHT22;23161;51.250;5.554;2024-01-27T05:40:20;-0.70;99.90
37274;DHT22;23161;51.250;5.554;2024-01-27T05:41:51;-0.80;99.90
37274;DHT22;23161;51.250;5.554;2024-01-27T05:43:22;-0.80;99.90
37274;DHT22;23161;51.250;5.554;2024-01-27T05:44:53;-0.50;99.90
37274;DHT22;23161;51.250;5.554;2024-01-27T05:46:27;0.00;99.90
37274;DHT22;23161;51.250;5.554;2024-01-27T05:47:57;-0.80;99.90
37274;DHT22;23161;51.250;5.554;2024-01-27T05:49:28;-0.80;99.90
37274;DHT22;23161;51.250;5.554;2024-01-27T05:51:00;-0.80;99.90
37274;DHT22;23161;51.250;5.554;2024-01-27T05:52:31;-0.30;99.90
37274;DHT22;23161;51.250;5.554;2024-01-27T05:54:02;-0.70;99.90
37274;DHT22;23161;51.250;5.554;2024-01-27T05:55:33;-0.50;99.90
37274;DHT22;23161;51.250;5.554;2024-01-27T05:57:04;-0.40;99.90
37274;DHT22;23161;51.250;5.554;2024-01-27T05:58:35;-0.30;99.90
37274;DHT22;23161;51.250;5.554;2024-01-27T06:00:06;-0.10;99.90
37274;DHT22;23161;51.250;5.554;2024-01-27T06:01:39;-0.30;99.90
37274;DHT22;23161;51.250;5.554;2024-01-27T06:03:12;-0.30;99.90
37274;DHT22;23161;51.250;5.554;2024-01-27T06:04:42;-0.10;99.90
37274;DHT22;23161;51.250;5.554;2024-01-27T06:06:13;-0.10;99.90
37274;DHT22;23161;51.250;5.554;2024-01-27T06:09:16;0.00;99.90
37274;DHT22;23161;51.250;5.554;2024-01-27T06:12:20;0.20;99.90
37274;DHT22;23161;51.250;5.554;2024-01-27T06:13:50;0.50;99.90
37274;DHT22;23161;51.250;5.554;2024-01-27T06:15:21;0.20;99.90
37274;DHT22;23161;51.250;5.554;2024-01-27T06:16:52;0.20;99.90
37274;DHT22;23161;51.250;5.554;2024-01-27T06:18:23;0.50;99.90
37274;DHT22;23161;51.250;5.554;2024-01-27T06:19:54;0.20;99.90
37274;DHT22;23161;51.250;5.554;2024-01-27T06:21:26;0.00;99.90
37274;DHT22;23161;51.250;5.554;2024-01-27T06:22:57;0.20;99.90
37274;DHT22;23161;51.250;5.554;2024-01-27T06:24:28;0.10;99.90
37274;DHT22;23161;51.250;5.554;2024-01-27T06:25:59;0.10;99.90
37274;DHT22;23161;51.250;5.554;2024-01-27T06:27:34;0.00;99.90
37274;DHT22;23161;51.250;5.554;2024-01-27T06:29:05;0.00;99.90
37274;DHT22;23161;51.250;5.554;2024-01-27T06:30:36;0.20;99.90
37274;DHT22;23161;51.250;5.554;2024-01-27T06:32:06;-0.10;99.90
37274;DHT22;23161;51.250;5.554;2024-01-27T06:33:37;-0.10;99.90
37274;DHT22;23161;51.250;5.554;2024-01-27T06:36:39;0.00;99.90
37274;DHT22;23161;51.250;5.554;2024-01-27T06:38:10;0.60;99.90
37274;DHT22;23161;51.250;5.554;2024-01-27T06:39:41;0.00;99.90
37274;DHT22;23161;51.250;5.554;2024-01-27T06:41:11;0.10;99.90
37274;DHT22;23161;51.250;5.554;2024-01-27T06:42:42;0.00;99.90
37274;DHT22;23161;51.250;5.554;2024-01-27T06:44:13;0.00;99.90
37274;DHT22;23161;51.250;5.554;2024-01-27T06:45:44;0.10;99.90
37274;DHT22;23161;51.250;5.554;2024-01-27T06:47:15;0.00;99.90
37274;DHT22;23161;51.250;5.554;2024-01-27T06:48:45;0.10;99.90
37274;DHT22;23161;51.250;5.554;2024-01-27T06:50:16;0.10;99.90
37274;DHT22;23161;51.250;5.554;2024-01-27T06:51:47;0.10;99.90
37274;DHT22;23161;51.250;5.554;2024-01-27T06:53:20;0.00;99.90
37274;DHT22;23161;51.250;5.554;2024-01-27T06:54:51;0.60;99.90
37274;DHT22;23161;51.250;5.554;2024-01-27T06:56:22;0.00;99.90
37274;DHT22;23161;51.250;5.554;2024-01-27T06:57:53;0.00;99.90
37274;DHT22;23161;51.250;5.554;2024-01-27T06:59:24;0.00;99.90
37274;DHT22;23161;51.250;5.554;2024-01-27T07:00:55;0.00;99.90
37274;DHT22;23161;51.250;5.554;2024-01-27T07:02:26;0.00;99.90
37274;DHT22;23161;51.250;5.554;2024-01-27T07:03:57;0.00;99.90
37274;DHT22;23161;51.250;5.554;2024-01-27T07:05:28;0.10;99.90
37274;DHT22;23161;51.250;5.554;2024-01-27T07:06:59;0.00;99.90
37274;DHT22;23161;51.250;5.554;2024-01-27T07:08:29;0.70;99.90
37274;DHT22;23161;51.250;5.554;2024-01-27T07:10:00;0.80;99.90
37274;DHT22;23161;51.250;5.554;2024-01-27T07:11:31;0.20;99.90
37274;DHT22;23161;51.250;5.554;2024-01-27T07:13:03;0.20;99.90
37274;DHT22;23161;51.250;5.554;2024-01-27T07:14:34;0.20;99.90
37274;DHT22;23161;51.250;5.554;2024-01-27T07:16:05;0.20;99.90
37274;DHT22;23161;51.250;5.554;2024-01-27T07:17:36;0.20;99.90
37274;DHT22;23161;51.250;5.554;2024-01-27T07:19:07;0.20;99.90
37274;DHT22;23161;51.250;5.554;2024-01-27T07:20:37;0.30;99.90
37274;DHT22;23161;51.250;5.554;2024-01-27T07:22:08;1.00;99.90
37274;DHT22;23161;51.250;5.554;2024-01-27T07:23:40;0.30;99.90
37274;DHT22;23161;51.250;5.554;2024-01-27T07:25:10;0.30;99.90
37274;DHT22;23161;51.250;5.554;2024-01-27T07:26:41;0.30;99.90
37274;DHT22;23161;51.250;5.554;2024-01-27T07:28:12;0.40;99.90
37274;DHT22;23161;51.250;5.554;2024-01-27T07:29:45;0.40;99.90
37274;DHT22;23161;51.250;5.554;2024-01-27T07:31:16;0.40;99.90
37274;DHT22;23161;51.250;5.554;2024-01-27T07:32:47;0.40;99.90
37274;DHT22;23161;51.250;5.554;2024-01-27T07:34:18;0.50;99.90
37274;DHT22;23161;51.250;5.554;2024-01-27T07:35:49;0.90;99.90
37274;DHT22;23161;51.250;5.554;2024-01-27T07:38:51;0.50;99.90
37274;DHT22;23161;51.250;5.554;2024-01-27T07:40:22;0.50;99.90
37274;DHT22;23161;51.250;5.554;2024-01-27T07:41:53;0.80;99.90
37274;DHT22;23161;51.250;5.554;2024-01-27T07:43:25;0.60;99.90
37274;DHT22;23161;51.250;5.554;2024-01-27T07:44:56;0.60;99.90
37274;DHT22;23161;51.250;5.554;2024-01-27T07:46:28;1.10;99.90
37274;DHT22;23161;51.250;5.554;2024-01-27T07:47:58;1.20;99.90
37274;DHT22;23161;51.250;5.554;2024-01-27T07:49:29;0.70;99.90
37274;DHT22;23161;51.250;5.554;2024-01-27T07:51:00;0.70;99.90
37274;DHT22;23161;51.250;5.554;2024-01-27T07:52:31;0.70;99.90
37274;DHT22;23161;51.250;5.554;2024-01-27T07:54:02;0.70;99.90
37274;DHT22;23161;51.250;5.554;2024-01-27T07:55:33;0.70;99.90
37274;DHT22;23161;51.250;5.554;2024-01-27T07:57:03;2.00;99.90
37274;DHT22;23161;51.250;5.554;2024-01-27T07:58:34;0.70;99.90
37274;DHT22;23161;51.250;5.554;2024-01-27T08:00:05;0.70;99.90
37274;DHT22;23161;51.250;5.554;2024-01-27T08:01:37;0.80;99.90
37274;DHT22;23161;51.250;5.554;2024-01-27T08:03:08;1.30;99.90
37274;DHT22;23161;51.250;5.554;2024-01-27T08:04:39;0.80;99.90
37274;DHT22;23161;51.250;5.554;2024-01-27T08:06:18;0.80;99.90
37274;DHT22;23161;51.250;5.554;2024-01-27T08:07:49;1.10;99.90
37274;DHT22;23161;51.250;5.554;2024-01-27T08:09:20;0.90;99.90
37274;DHT22;23161;51.250;5.554;2024-01-27T08:10:51;0.90;99.90
37274;DHT22;23161;51.250;5.554;2024-01-27T08:12:21;0.80;99.90
37274;DHT22;23161;51.250;5.554;2024-01-27T08:13:52;0.90;99.90
37274;DHT22;23161;51.250;5.554;2024-01-27T08:16:56;0.90;99.90
37274;DHT22;23161;51.250;5.554;2024-01-27T08:18:27;1.00;99.90
37274;DHT22;23161;51.250;5.554;2024-01-27T08:19:58;1.10;99.90
37274;DHT22;23161;51.250;5.554;2024-01-27T08:21:30;1.30;99.90
37274;DHT22;23161;51.250;5.554;2024-01-27T08:23:01;1.20;99.90
37274;DHT22;23161;51.250;5.554;2024-01-27T08:24:32;1.30;99.90
37274;DHT22;23161;51.250;5.554;2024-01-27T08:26:03;1.30;99.90
37274;DHT22;23161;51.250;5.554;2024-01-27T08:27:33;1.40;99.90
37274;DHT22;23161;51.250;5.554;2024-01-27T08:29:04;1.50;99.90
37274;DHT22;23161;51.250;5.554;2024-01-27T08:30:35;1.70;99.90
37274;DHT22;23161;51.250;5.554;2024-01-27T08:32:06;1.50;99.90
37274;DHT22;23161;51.250;5.554;2024-01-27T08:33:37;1.70;99.90
37274;DHT22;23161;51.250;5.554;2024-01-27T08:35:08;1.70;99.90
37274;DHT22;23161;51.250;5.554;2024-01-27T08:36:39;1.70;99.90
37274;DHT22;23161;51.250;5.554;2024-01-27T08:38:09;1.70;99.90
37274;DHT22;23161;51.250;5.554;2024-01-27T08:39:40;1.80;99.90
37274;DHT22;23161;51.250;5.554;2024-01-27T08:41:11;1.80;99.90
37274;DHT22;23161;51.250;5.554;2024-01-27T08:44:13;1.80;99.90
37274;DHT22;23161;51.250;5.554;2024-01-27T08:45:44;1.80;99.90
37274;DHT22;23161;51.250;5.554;2024-01-27T08:47:15;1.80;99.90
37274;DHT22;23161;51.250;5.554;2024-01-27T08:48:46;1.80;99.90
37274;DHT22;23161;51.250;5.554;2024-01-27T08:50:16;2.50;99.90
37274;DHT22;23161;51.250;5.554;2024-01-27T08:51:47;2.20;99.90
37274;DHT22;23161;51.250;5.554;2024-01-27T08:53:18;2.40;99.90
37274;DHT22;23161;51.250;5.554;2024-01-27T08:54:49;2.40;99.90
37274;DHT22;23161;51.250;5.554;2024-01-27T08:56:20;2.50;99.90
37274;DHT22;23161;51.250;5.554;2024-01-27T08:57:51;2.70;99.90
37274;DHT22;23161;51.250;5.554;2024-01-27T08:59:22;2.90;99.90
37274;DHT22;23161;51.250;5.554;2024-01-27T09:00:53;3.10;99.90
37274;DHT22;23161;51.250;5.554;2024-01-27T09:02:24;3.40;99.90
37274;DHT22;23161;51.250;5.554;2024-01-27T09:03:55;3.60;99.90
37274;DHT22;23161;51.250;5.554;2024-01-27T09:05:26;4.00;99.90
37274;DHT22;23161;51.250;5.554;2024-01-27T09:08:29;4.70;99.90
37274;DHT22;23161;51.250;5.554;2024-01-27T09:10:00;5.00;99.90
37274;DHT22;23161;51.250;5.554;2024-01-27T09:11:31;5.30;99.90
37274;DHT22;23161;51.250;5.554;2024-01-27T09:13:03;5.30;99.90
37274;DHT22;23161;51.250;5.554;2024-01-27T09:14:34;5.30;99.90
37274;DHT22;23161;51.250;5.554;2024-01-27T09:16:04;5.30;99.90
37274;DHT22;23161;51.250;5.554;2024-01-27T09:17:35;5.40;99.90
37274;DHT22;23161;51.250;5.554;2024-01-27T09:19:06;5.60;99.90
37274;DHT22;23161;51.250;5.554;2024-01-27T09:20:39;6.00;99.90
37274;DHT22;23161;51.250;5.554;2024-01-27T09:22:10;6.40;99.90
37274;DHT22;23161;51.250;5.554;2024-01-27T09:23:41;6.60;99.90
37274;DHT22;23161;51.250;5.554;2024-01-27T09:25:12;7.00;99.90
37274;DHT22;23161;51.250;5.554;2024-01-27T09:26:43;7.40;99.90
37274;DHT22;23161;51.250;5.554;2024-01-27T09:28:14;7.60;99.90
37274;DHT22;23161;51.250;5.554;2024-01-27T09:29:46;7.90;99.90
37274;DHT22;23161;51.250;5.554;2024-01-27T09:31:17;8.10;99.90
37274;DHT22;23161;51.250;5.554;2024-01-27T09:32:48;8.30;99.90
37274;DHT22;23161;51.250;5.554;2024-01-27T09:34:18;8.40;99.90
37274;DHT22;23161;51.250;5.554;2024-01-27T09:35:49;8.10;99.90
37274;DHT22;23161;51.250;5.554;2024-01-27T09:37:20;7.90;99.90
37274;DHT22;23161;51.250;5.554;2024-01-27T09:38:51;7.50;99.90
37274;DHT22;23161;51.250;5.554;2024-01-27T09:40:22;7.30;99.90
37274;DHT22;23161;51.250;5.554;2024-01-27T09:41:54;7.20;99.90
37274;DHT22;23161;51.250;5.554;2024-01-27T09:43:27;6.70;99.90
37274;DHT22;23161;51.250;5.554;2024-01-27T09:44:59;6.40;99.90
37274;DHT22;23161;51.250;5.554;2024-01-27T09:46:31;6.00;99.90
37274;DHT22;23161;51.250;5.554;2024-01-27T09:48:03;6.10;99.90
37274;DHT22;23161;51.250;5.554;2024-01-27T09:49:36;6.20;99.90
37274;DHT22;23161;51.250;5.554;2024-01-27T09:51:09;6.80;99.90
37274;DHT22;23161;51.250;5.554;2024-01-27T09:52:40;7.40;99.90
37274;DHT22;23161;51.250;5.554;2024-01-27T09:54:11;7.60;99.90
37274;DHT22;23161;51.250;5.554;2024-01-27T09:55:43;8.00;99.90
37274;DHT22;23161;51.250;5.554;2024-01-27T09:57:15;8.50;99.90
37274;DHT22;23161;51.250;5.554;2024-01-27T09:58:46;8.70;99.90
37274;DHT22;23161;51.250;5.554;2024-01-27T10:00:19;8.80;99.90
37274;DHT22;23161;51.250;5.554;2024-01-27T10:01:50;8.90;99.90
37274;DHT22;23161;51.250;5.554;2024-01-27T10:03:26;9.20;99.90
37274;DHT22;23161;51.250;5.554;2024-01-27T10:04:58;9.30;99.90